sensor_id;sensor_type;location;lat;lon;timestamp;P1;durP1;ratioP1;P2;durP2;ratioP2
11510;SDS011;5812;48.864;9.190;2023-02-28T00:00:14;2.20;;;2.20;;
11510;SDS011;5812;48.864;9.190;2023-02-28T00:02:40;1.97;;;1.97;;
11510;SDS011;5812;48.864;9.190;2023-02-28T00:05:08;2.20;;;2.20;;
11510;SDS011;5812;48.864;9.190;2023-02-28T00:07:34;2.37;;;2.37;;
11510;SDS011;5812;48.864;9.190;2023-02-28T00:10:00;2.00;;;2.00;;
11510;SDS011;5812;48.864;9.190;2023-02-28T00:12:26;2.10;;;2.10;;
11510;SDS011;5812;48.864;9.190;2023-02-28T00:14:51;2.30;;;2.30;;
11510;SDS011;5812;48.864;9.190;2023-02-28T00:17:17;2.10;;;2.10;;
11510;SDS011;5812;48.864;9.190;2023-02-28T00:19:46;2.30;;;2.30;;
11510;SDS011;5812;48.864;9.190;2023-02-28T00:22:13;2.13;;;2.13;;
11510;SDS011;5812;48.864;9.190;2023-02-28T00:24:39;2.33;;;2.33;;
11510;SDS011;5812;48.864;9.190;2023-02-28T00:27:05;2.10;;;2.10;;
11510;SDS011;5812;48.864;9.190;2023-02-28T00:29:30;2.27;;;2.27;;
11510;SDS011;5812;48.864;9.190;2023-02-28T00:31:56;2.40;;;2.40;;
11510;SDS011;5812;48.864;9.190;2023-02-28T00:34:21;2.50;;;2.50;;
11510;SDS011;5812;48.864;9.190;2023-02-28T00:36:47;2.50;;;2.50;;
11510;SDS011;5812;48.864;9.190;2023-02-28T00:39:15;2.27;;;2.27;;
11510;SDS011;5812;48.864;9.190;2023-02-28T00:41:41;2.30;;;2.30;;
11510;SDS011;5812;48.864;9.190;2023-02-28T00:44:07;2.63;;;2.63;;
11510;SDS011;5812;48.864;9.190;2023-02-28T00:46:32;2.73;;;2.73;;
11510;SDS011;5812;48.864;9.190;2023-02-28T00:48:58;2.70;;;2.70;;
11510;SDS011;5812;48.864;9.190;2023-02-28T00:51:23;2.50;;;2.50;;
11510;SDS011;5812;48.864;9.190;2023-02-28T00:53:49;2.20;;;2.20;;
11510;SDS011;5812;48.864;9.190;2023-02-28T00:56:15;3.03;;;3.03;;
11510;SDS011;5812;48.864;9.190;2023-02-28T00:58:40;2.60;;;2.60;;
11510;SDS011;5812;48.864;9.190;2023-02-28T01:01:06;2.50;;;2.50;;
11510;SDS011;5812;48.864;9.190;2023-02-28T01:03:32;2.97;;;2.97;;
11510;SDS011;5812;48.864;9.190;2023-02-28T01:05:57;2.33;;;2.33;;
11510;SDS011;5812;48.864;9.190;2023-02-28T01:08:23;2.63;;;2.63;;
11510;SDS011;5812;48.864;9.190;2023-02-28T01:10:49;2.93;;;2.93;;
11510;SDS011;5812;48.864;9.190;2023-02-28T01:13:15;2.97;;;2.97;;
11510;SDS011;5812;48.864;9.190;2023-02-28T01:15:42;2.97;;;2.97;;
11510;SDS011;5812;48.864;9.190;2023-02-28T01:18:13;2.93;;;2.93;;
11510;SDS011;5812;48.864;9.190;2023-02-28T01:20:39;2.67;;;2.67;;
11510;SDS011;5812;48.864;9.190;2023-02-28T01:23:05;3.00;;;3.00;;
11510;SDS011;5812;48.864;9.190;2023-02-28T01:25:30;2.37;;;2.37;;
11510;SDS011;5812;48.864;9.190;2023-02-28T01:27:58;2.97;;;2.97;;
11510;SDS011;5812;48.864;9.190;2023-02-28T01:30:24;3.10;;;3.10;;
11510;SDS011;5812;48.864;9.190;2023-02-28T01:32:49;3.27;;;3.27;;
11510;SDS011;5812;48.864;9.190;2023-02-28T01:35:18;2.70;;;2.70;;
11510;SDS011;5812;48.864;9.190;2023-02-28T01:37:44;2.80;;;2.80;;
11510;SDS011;5812;48.864;9.190;2023-02-28T01:40:10;2.80;;;2.80;;
11510;SDS011;5812;48.864;9.190;2023-02-28T01:42:36;3.57;;;3.57;;
11510;SDS011;5812;48.864;9.190;2023-02-28T01:47:46;3.17;;;3.17;;
11510;SDS011;5812;48.864;9.190;2023-02-28T01:50:16;3.37;;;3.37;;
11510;SDS011;5812;48.864;9.190;2023-02-28T01:52:47;2.53;;;2.53;;
11510;SDS011;5812;48.864;9.190;2023-02-28T01:55:14;3.33;;;3.33;;
11510;SDS011;5812;48.864;9.190;2023-02-28T01:57:45;2.90;;;2.90;;
11510;SDS011;5812;48.864;9.190;2023-02-28T02:00:16;2.67;;;2.67;;
11510;SDS011;5812;48.864;9.190;2023-02-28T02:02:46;3.53;;;3.53;;
11510;SDS011;5812;48.864;9.190;2023-02-28T02:05:18;3.23;;;3.23;;
11510;SDS011;5812;48.864;9.190;2023-02-28T02:07:46;3.27;;;3.27;;
11510;SDS011;5812;48.864;9.190;2023-02-28T02:10:48;3.40;;;3.40;;
11510;SDS011;5812;48.864;9.190;2023-02-28T02:21:16;3.23;;;3.23;;
11510;SDS011;5812;48.864;9.190;2023-02-28T02:37:50;2.63;;;2.63;;
11510;SDS011;5812;48.864;9.190;2023-02-28T02:40:43;3.30;;;3.30;;
11510;SDS011;5812;48.864;9.190;2023-02-28T02:43:25;2.97;;;2.97;;
11510;SDS011;5812;48.864;9.190;2023-02-28T02:46:04;3.30;;;3.30;;
11510;SDS011;5812;48.864;9.190;2023-02-28T02:48:39;3.40;;;3.40;;
11510;SDS011;5812;48.864;9.190;2023-02-28T02:51:09;3.13;;;3.13;;
11510;SDS011;5812;48.864;9.190;2023-02-28T02:53:40;3.53;;;3.53;;
11510;SDS011;5812;48.864;9.190;2023-02-28T02:56:11;3.43;;;3.43;;
11510;SDS011;5812;48.864;9.190;2023-02-28T02:58:40;3.20;;;3.20;;
11510;SDS011;5812;48.864;9.190;2023-02-28T03:01:10;3.53;;;3.53;;
11510;SDS011;5812;48.864;9.190;2023-02-28T03:03:40;3.63;;;3.63;;
11510;SDS011;5812;48.864;9.190;2023-02-28T03:06:07;3.60;;;3.60;;
11510;SDS011;5812;48.864;9.190;2023-02-28T03:08:34;3.63;;;3.63;;
11510;SDS011;5812;48.864;9.190;2023-02-28T03:11:03;3.50;;;3.50;;
11510;SDS011;5812;48.864;9.190;2023-02-28T03:18:49;3.63;;;3.63;;
11510;SDS011;5812;48.864;9.190;2023-02-28T03:27:34;3.30;;;3.30;;
11510;SDS011;5812;48.864;9.190;2023-02-28T03:30:13;3.87;;;3.87;;
11510;SDS011;5812;48.864;9.190;2023-02-28T03:32:57;3.70;;;3.70;;
11510;SDS011;5812;48.864;9.190;2023-02-28T03:35:33;3.60;;;3.60;;
11510;SDS011;5812;48.864;9.190;2023-02-28T03:38:10;3.33;;;3.33;;
11510;SDS011;5812;48.864;9.190;2023-02-28T03:43:55;3.80;;;3.80;;
11510;SDS011;5812;48.864;9.190;2023-02-28T03:46:27;3.57;;;3.57;;
11510;SDS011;5812;48.864;9.190;2023-02-28T03:49:02;4.07;;;4.07;;
11510;SDS011;5812;48.864;9.190;2023-02-28T03:51:34;3.70;;;3.70;;
11510;SDS011;5812;48.864;9.190;2023-02-28T03:54:07;3.57;;;3.57;;
11510;SDS011;5812;48.864;9.190;2023-02-28T03:56:39;3.40;;;3.40;;
11510;SDS011;5812;48.864;9.190;2023-02-28T03:59:14;3.50;;;3.50;;
11510;SDS011;5812;48.864;9.190;2023-02-28T04:01:48;3.80;;;3.80;;
11510;SDS011;5812;48.864;9.190;2023-02-28T04:04:14;3.40;;;3.40;;
11510;SDS011;5812;48.864;9.190;2023-02-28T04:06:42;3.80;;;3.80;;
11510;SDS011;5812;48.864;9.190;2023-02-28T04:09:09;3.57;;;3.57;;
11510;SDS011;5812;48.864;9.190;2023-02-28T04:11:40;3.30;;;3.30;;
11510;SDS011;5812;48.864;9.190;2023-02-28T04:14:07;3.60;;;3.60;;
11510;SDS011;5812;48.864;9.190;2023-02-28T04:16:34;3.80;;;3.80;;
11510;SDS011;5812;48.864;9.190;2023-02-28T04:19:04;3.53;;;3.53;;
11510;SDS011;5812;48.864;9.190;2023-02-28T04:21:32;3.93;;;3.93;;
11510;SDS011;5812;48.864;9.190;2023-02-28T04:23:58;4.10;;;4.10;;
11510;SDS011;5812;48.864;9.190;2023-02-28T04:26:27;3.90;;;3.90;;
11510;SDS011;5812;48.864;9.190;2023-02-28T04:28:55;3.57;;;3.57;;
11510;SDS011;5812;48.864;9.190;2023-02-28T04:31:21;3.57;;;3.57;;
11510;SDS011;5812;48.864;9.190;2023-02-28T04:33:46;3.90;;;3.90;;
11510;SDS011;5812;48.864;9.190;2023-02-28T04:36:12;3.73;;;3.73;;
11510;SDS011;5812;48.864;9.190;2023-02-28T04:38:39;4.20;;;4.20;;
11510;SDS011;5812;48.864;9.190;2023-02-28T04:41:05;3.63;;;3.63;;
11510;SDS011;5812;48.864;9.190;2023-02-28T04:43:31;3.27;;;3.27;;
11510;SDS011;5812;48.864;9.190;2023-02-28T04:45:58;4.07;;;4.07;;
11510;SDS011;5812;48.864;9.190;2023-02-28T04:48:29;4.17;;;4.17;;
11510;SDS011;5812;48.864;9.190;2023-02-28T04:51:07;3.87;;;3.87;;
11510;SDS011;5812;48.864;9.190;2023-02-28T04:53:34;3.93;;;3.93;;
11510;SDS011;5812;48.864;9.190;2023-02-28T04:56:01;3.87;;;3.87;;
11510;SDS011;5812;48.864;9.190;2023-02-28T04:58:27;4.07;;;4.07;;
11510;SDS011;5812;48.864;9.190;2023-02-28T05:00:55;4.53;;;4.53;;
11510;SDS011;5812;48.864;9.190;2023-02-28T05:03:37;4.13;;;4.13;;
11510;SDS011;5812;48.864;9.190;2023-02-28T05:06:05;3.60;;;3.60;;
11510;SDS011;5812;48.864;9.190;2023-02-28T05:08:32;3.87;;;3.87;;
11510;SDS011;5812;48.864;9.190;2023-02-28T05:10:58;4.43;;;4.43;;
11510;SDS011;5812;48.864;9.190;2023-02-28T05:13:25;4.00;;;4.00;;
11510;SDS011;5812;48.864;9.190;2023-02-28T05:15:51;4.27;;;4.27;;
11510;SDS011;5812;48.864;9.190;2023-02-28T05:18:17;4.37;;;4.37;;
11510;SDS011;5812;48.864;9.190;2023-02-28T05:20:42;4.00;;;4.00;;
11510;SDS011;5812;48.864;9.190;2023-02-28T05:23:09;4.03;;;4.03;;
11510;SDS011;5812;48.864;9.190;2023-02-28T05:25:37;4.37;;;4.37;;
11510;SDS011;5812;48.864;9.190;2023-02-28T05:28:04;4.03;;;4.03;;
11510;SDS011;5812;48.864;9.190;2023-02-28T05:30:29;3.90;;;3.90;;
11510;SDS011;5812;48.864;9.190;2023-02-28T05:32:56;4.40;;;4.40;;
11510;SDS011;5812;48.864;9.190;2023-02-28T05:35:22;4.67;;;4.67;;
11510;SDS011;5812;48.864;9.190;2023-02-28T05:37:48;4.30;;;4.30;;
11510;SDS011;5812;48.864;9.190;2023-02-28T05:40:14;3.93;;;3.93;;
11510;SDS011;5812;48.864;9.190;2023-02-28T05:42:40;4.70;;;4.70;;
11510;SDS011;5812;48.864;9.190;2023-02-28T05:45:06;4.80;;;4.80;;
11510;SDS011;5812;48.864;9.190;2023-02-28T05:47:32;4.60;;;4.60;;
11510;SDS011;5812;48.864;9.190;2023-02-28T05:49:58;4.47;;;4.47;;
11510;SDS011;5812;48.864;9.190;2023-02-28T05:52:24;4.67;;;4.67;;
11510;SDS011;5812;48.864;9.190;2023-02-28T05:54:50;4.53;;;4.53;;
11510;SDS011;5812;48.864;9.190;2023-02-28T05:57:16;4.23;;;4.23;;
11510;SDS011;5812;48.864;9.190;2023-02-28T05:59:41;4.63;;;4.63;;
11510;SDS011;5812;48.864;9.190;2023-02-28T06:02:13;4.53;;;4.53;;
11510;SDS011;5812;48.864;9.190;2023-02-28T06:04:40;5.10;;;5.10;;
11510;SDS011;5812;48.864;9.190;2023-02-28T06:07:06;5.10;;;5.10;;
11510;SDS011;5812;48.864;9.190;2023-02-28T06:09:32;5.83;;;5.83;;
11510;SDS011;5812;48.864;9.190;2023-02-28T06:11:58;6.20;;;6.20;;
11510;SDS011;5812;48.864;9.190;2023-02-28T06:14:24;6.20;;;6.20;;
11510;SDS011;5812;48.864;9.190;2023-02-28T06:16:50;5.10;;;5.10;;
11510;SDS011;5812;48.864;9.190;2023-02-28T06:19:16;4.90;;;4.90;;
11510;SDS011;5812;48.864;9.190;2023-02-28T06:21:42;4.53;;;4.53;;
11510;SDS011;5812;48.864;9.190;2023-02-28T06:24:08;4.63;;;4.63;;
11510;SDS011;5812;48.864;9.190;2023-02-28T06:26:33;4.97;;;4.97;;
11510;SDS011;5812;48.864;9.190;2023-02-28T06:28:59;4.83;;;4.83;;
11510;SDS011;5812;48.864;9.190;2023-02-28T06:31:25;4.73;;;4.73;;
11510;SDS011;5812;48.864;9.190;2023-02-28T06:33:53;5.17;;;5.17;;
11510;SDS011;5812;48.864;9.190;2023-02-28T06:36:19;4.77;;;4.77;;
11510;SDS011;5812;48.864;9.190;2023-02-28T06:38:45;5.43;;;5.43;;
11510;SDS011;5812;48.864;9.190;2023-02-28T06:41:16;5.07;;;5.07;;
11510;SDS011;5812;48.864;9.190;2023-02-28T06:43:41;4.63;;;4.63;;
11510;SDS011;5812;48.864;9.190;2023-02-28T06:46:07;5.40;;;5.40;;
11510;SDS011;5812;48.864;9.190;2023-02-28T06:48:35;5.00;;;5.00;;
11510;SDS011;5812;48.864;9.190;2023-02-28T06:51:08;4.70;;;4.70;;
11510;SDS011;5812;48.864;9.190;2023-02-28T06:53:35;5.27;;;5.27;;
11510;SDS011;5812;48.864;9.190;2023-02-28T06:56:04;4.90;;;4.90;;
11510;SDS011;5812;48.864;9.190;2023-02-28T06:58:31;5.23;;;5.23;;
11510;SDS011;5812;48.864;9.190;2023-02-28T07:00:57;4.90;;;4.90;;
11510;SDS011;5812;48.864;9.190;2023-02-28T07:03:23;5.50;;;5.50;;
11510;SDS011;5812;48.864;9.190;2023-02-28T07:05:49;5.00;;;5.00;;
11510;SDS011;5812;48.864;9.190;2023-02-28T07:08:14;4.80;;;4.80;;
11510;SDS011;5812;48.864;9.190;2023-02-28T07:10:40;4.80;;;4.80;;
11510;SDS011;5812;48.864;9.190;2023-02-28T07:13:06;5.63;;;5.63;;
11510;SDS011;5812;48.864;9.190;2023-02-28T07:15:33;7.30;;;7.30;;
11510;SDS011;5812;48.864;9.190;2023-02-28T07:17:59;7.30;;;7.30;;
11510;SDS011;5812;48.864;9.190;2023-02-28T07:20:25;5.00;;;5.00;;
11510;SDS011;5812;48.864;9.190;2023-02-28T07:22:50;5.27;;;5.27;;
11510;SDS011;5812;48.864;9.190;2023-02-28T07:25:24;5.60;;;5.60;;
11510;SDS011;5812;48.864;9.190;2023-02-28T07:27:51;5.07;;;5.07;;
11510;SDS011;5812;48.864;9.190;2023-02-28T07:30:16;5.30;;;5.30;;
11510;SDS011;5812;48.864;9.190;2023-02-28T07:32:42;5.30;;;5.30;;
11510;SDS011;5812;48.864;9.190;2023-02-28T07:35:08;5.17;;;5.17;;
11510;SDS011;5812;48.864;9.190;2023-02-28T07:37:33;5.20;;;5.20;;
11510;SDS011;5812;48.864;9.190;2023-02-28T07:40:02;5.13;;;5.13;;
11510;SDS011;5812;48.864;9.190;2023-02-28T07:42:31;5.37;;;5.37;;
11510;SDS011;5812;48.864;9.190;2023-02-28T07:44:57;5.90;;;5.90;;
11510;SDS011;5812;48.864;9.190;2023-02-28T07:47:24;4.83;;;4.83;;
11510;SDS011;5812;48.864;9.190;2023-02-28T07:49:49;5.37;;;5.37;;
11510;SDS011;5812;48.864;9.190;2023-02-28T07:52:15;5.10;;;5.10;;
11510;SDS011;5812;48.864;9.190;2023-02-28T07:54:41;6.63;;;6.63;;
11510;SDS011;5812;48.864;9.190;2023-02-28T07:57:06;5.73;;;5.73;;
11510;SDS011;5812;48.864;9.190;2023-02-28T07:59:32;5.60;;;5.60;;
11510;SDS011;5812;48.864;9.190;2023-02-28T08:01:57;5.90;;;5.90;;
11510;SDS011;5812;48.864;9.190;2023-02-28T08:04:24;5.73;;;5.73;;
11510;SDS011;5812;48.864;9.190;2023-02-28T08:06:50;5.57;;;5.57;;
11510;SDS011;5812;48.864;9.190;2023-02-28T08:09:19;5.80;;;5.80;;
11510;SDS011;5812;48.864;9.190;2023-02-28T08:11:45;5.53;;;5.53;;
11510;SDS011;5812;48.864;9.190;2023-02-28T08:14:10;5.73;;;5.73;;
11510;SDS011;5812;48.864;9.190;2023-02-28T08:16:36;5.50;;;5.50;;
11510;SDS011;5812;48.864;9.190;2023-02-28T08:19:02;5.43;;;5.43;;
11510;SDS011;5812;48.864;9.190;2023-02-28T08:21:27;6.00;;;6.00;;
11510;SDS011;5812;48.864;9.190;2023-02-28T08:23:53;5.50;;;5.50;;
11510;SDS011;5812;48.864;9.190;2023-02-28T08:26:19;6.10;;;6.10;;
11510;SDS011;5812;48.864;9.190;2023-02-28T08:28:45;5.47;;;5.47;;
11510;SDS011;5812;48.864;9.190;2023-02-28T08:31:11;5.40;;;5.40;;
11510;SDS011;5812;48.864;9.190;2023-02-28T08:33:39;5.33;;;5.33;;
11510;SDS011;5812;48.864;9.190;2023-02-28T08:36:06;5.47;;;5.47;;
11510;SDS011;5812;48.864;9.190;2023-02-28T08:38:33;5.67;;;5.67;;
11510;SDS011;5812;48.864;9.190;2023-02-28T08:41:01;5.57;;;5.57;;
11510;SDS011;5812;48.864;9.190;2023-02-28T08:43:30;5.90;;;5.90;;
11510;SDS011;5812;48.864;9.190;2023-02-28T08:45:56;5.37;;;5.37;;
11510;SDS011;5812;48.864;9.190;2023-02-28T08:48:22;5.20;;;5.20;;
11510;SDS011;5812;48.864;9.190;2023-02-28T08:50:55;5.80;;;5.80;;
11510;SDS011;5812;48.864;9.190;2023-02-28T08:53:25;5.77;;;5.77;;
11510;SDS011;5812;48.864;9.190;2023-02-28T08:56:01;5.97;;;5.97;;
11510;SDS011;5812;48.864;9.190;2023-02-28T08:58:29;5.87;;;5.87;;
11510;SDS011;5812;48.864;9.190;2023-02-28T09:00:55;5.87;;;5.87;;
11510;SDS011;5812;48.864;9.190;2023-02-28T09:03:20;6.07;;;6.07;;
11510;SDS011;5812;48.864;9.190;2023-02-28T09:05:57;5.77;;;5.77;;
11510;SDS011;5812;48.864;9.190;2023-02-28T09:08:28;5.53;;;5.53;;
11510;SDS011;5812;48.864;9.190;2023-02-28T09:10:55;5.37;;;5.37;;
11510;SDS011;5812;48.864;9.190;2023-02-28T09:13:22;5.67;;;5.67;;
11510;SDS011;5812;48.864;9.190;2023-02-28T09:15:49;6.67;;;6.67;;
11510;SDS011;5812;48.864;9.190;2023-02-28T09:18:15;6.03;;;6.03;;
11510;SDS011;5812;48.864;9.190;2023-02-28T09:20:41;5.70;;;5.70;;
11510;SDS011;5812;48.864;9.190;2023-02-28T09:23:07;5.67;;;5.67;;
11510;SDS011;5812;48.864;9.190;2023-02-28T09:25:34;6.30;;;6.30;;
11510;SDS011;5812;48.864;9.190;2023-02-28T09:28:00;5.70;;;5.70;;
11510;SDS011;5812;48.864;9.190;2023-02-28T09:30:26;6.03;;;6.03;;
11510;SDS011;5812;48.864;9.190;2023-02-28T09:32:52;6.43;;;6.43;;
11510;SDS011;5812;48.864;9.190;2023-02-28T09:35:19;5.97;;;5.97;;
11510;SDS011;5812;48.864;9.190;2023-02-28T09:37:46;6.53;;;6.53;;
11510;SDS011;5812;48.864;9.190;2023-02-28T09:40:12;6.20;;;6.20;;
11510;SDS011;5812;48.864;9.190;2023-02-28T09:42:40;6.20;;;6.20;;
11510;SDS011;5812;48.864;9.190;2023-02-28T09:45:13;6.83;;;6.83;;
11510;SDS011;5812;48.864;9.190;2023-02-28T09:47:46;5.87;;;5.87;;
11510;SDS011;5812;48.864;9.190;2023-02-28T09:50:23;6.27;;;6.27;;
11510;SDS011;5812;48.864;9.190;2023-02-28T09:53:30;6.43;;;6.43;;
11510;SDS011;5812;48.864;9.190;2023-02-28T09:56:03;6.20;;;6.20;;
11510;SDS011;5812;48.864;9.190;2023-02-28T10:04:09;5.93;;;5.93;;
11510;SDS011;5812;48.864;9.190;2023-02-28T10:06:58;7.10;;;7.10;;
11510;SDS011;5812;48.864;9.190;2023-02-28T10:09:29;6.50;;;6.50;;
11510;SDS011;5812;48.864;9.190;2023-02-28T10:11:59;7.17;;;7.17;;
11510;SDS011;5812;48.864;9.190;2023-02-28T10:14:29;6.23;;;6.23;;
11510;SDS011;5812;48.864;9.190;2023-02-28T10:16:59;6.67;;;6.67;;
11510;SDS011;5812;48.864;9.190;2023-02-28T10:19:50;6.43;;;6.43;;
11510;SDS011;5812;48.864;9.190;2023-02-28T10:22:37;6.40;;;6.40;;
11510;SDS011;5812;48.864;9.190;2023-02-28T10:25:19;6.83;;;6.83;;
11510;SDS011;5812;48.864;9.190;2023-02-28T10:27:48;6.43;;;6.43;;
11510;SDS011;5812;48.864;9.190;2023-02-28T10:30:18;7.10;;;7.10;;
11510;SDS011;5812;48.864;9.190;2023-02-28T10:32:47;6.33;;;6.33;;
11510;SDS011;5812;48.864;9.190;2023-02-28T10:35:17;6.13;;;6.13;;
11510;SDS011;5812;48.864;9.190;2023-02-28T10:37:51;6.77;;;6.77;;
11510;SDS011;5812;48.864;9.190;2023-02-28T10:43:11;5.43;;;5.43;;
11510;SDS011;5812;48.864;9.190;2023-02-28T10:45:58;6.53;;;6.53;;
11510;SDS011;5812;48.864;9.190;2023-02-28T10:48:49;6.40;;;6.40;;
11510;SDS011;5812;48.864;9.190;2023-02-28T10:51:25;6.67;;;6.67;;
11510;SDS011;5812;48.864;9.190;2023-02-28T10:54:03;6.47;;;6.47;;
11510;SDS011;5812;48.864;9.190;2023-02-28T10:56:30;6.20;;;6.20;;
11510;SDS011;5812;48.864;9.190;2023-02-28T10:58:58;6.20;;;6.20;;
11510;SDS011;5812;48.864;9.190;2023-02-28T11:06:58;6.17;;;6.17;;
11510;SDS011;5812;48.864;9.190;2023-02-28T11:09:57;6.17;;;6.17;;
11510;SDS011;5812;48.864;9.190;2023-02-28T11:12:31;6.90;;;6.90;;
11510;SDS011;5812;48.864;9.190;2023-02-28T11:15:28;6.33;;;6.33;;
11510;SDS011;5812;48.864;9.190;2023-02-28T11:17:57;7.30;;;7.30;;
11510;SDS011;5812;48.864;9.190;2023-02-28T11:20:39;6.70;;;6.70;;
11510;SDS011;5812;48.864;9.190;2023-02-28T11:23:05;5.50;;;5.50;;
11510;SDS011;5812;48.864;9.190;2023-02-28T11:25:38;6.63;;;6.63;;
11510;SDS011;5812;48.864;9.190;2023-02-28T11:28:05;6.50;;;6.50;;
11510;SDS011;5812;48.864;9.190;2023-02-28T11:33:52;5.53;;;5.53;;
11510;SDS011;5812;48.864;9.190;2023-02-28T11:36:24;5.40;;;5.40;;
11510;SDS011;5812;48.864;9.190;2023-02-28T11:38:59;5.73;;;5.73;;
11510;SDS011;5812;48.864;9.190;2023-02-28T11:59:58;5.47;;;5.47;;
11510;SDS011;5812;48.864;9.190;2023-02-28T12:08:07;4.72;;;4.72;;
11510;SDS011;5812;48.864;9.190;2023-02-28T12:10:47;5.78;;;5.78;;
11510;SDS011;5812;48.864;9.190;2023-02-28T12:19:17;5.35;;;5.35;;
11510;SDS011;5812;48.864;9.190;2023-02-28T12:24:43;5.68;;;5.68;;
11510;SDS011;5812;48.864;9.190;2023-02-28T12:27:12;5.22;;;5.22;;
11510;SDS011;5812;48.864;9.190;2023-02-28T12:32:39;4.97;;;4.97;;
11510;SDS011;5812;48.864;9.190;2023-02-28T12:35:14;5.20;;;5.20;;
11510;SDS011;5812;48.864;9.190;2023-02-28T12:37:47;5.40;;;5.40;;
11510;SDS011;5812;48.864;9.190;2023-02-28T12:40:25;5.10;;;5.10;;
11510;SDS011;5812;48.864;9.190;2023-02-28T12:43:02;4.75;;;4.75;;
11510;SDS011;5812;48.864;9.190;2023-02-28T12:48:32;4.75;;;4.75;;
11510;SDS011;5812;48.864;9.190;2023-02-28T12:51:34;4.90;;;4.90;;
11510;SDS011;5812;48.864;9.190;2023-02-28T12:56:41;4.80;;;4.80;;
11510;SDS011;5812;48.864;9.190;2023-02-28T12:59:25;5.03;;;5.03;;
11510;SDS011;5812;48.864;9.190;2023-02-28T13:05:23;5.25;;;5.25;;
11510;SDS011;5812;48.864;9.190;2023-02-28T13:10:55;4.50;;;4.50;;
11510;SDS011;5812;48.864;9.190;2023-02-28T13:13:22;4.93;;;4.93;;
11510;SDS011;5812;48.864;9.190;2023-02-28T13:15:57;4.78;;;4.78;;
11510;SDS011;5812;48.864;9.190;2023-02-28T13:21:02;4.97;;;4.97;;
11510;SDS011;5812;48.864;9.190;2023-02-28T13:26:12;4.95;;;4.95;;
11510;SDS011;5812;48.864;9.190;2023-02-28T13:31:22;5.20;;;5.20;;
11510;SDS011;5812;48.864;9.190;2023-02-28T13:44:04;4.88;;;4.88;;
11510;SDS011;5812;48.864;9.190;2023-02-28T13:51:46;5.53;;;5.53;;
11510;SDS011;5812;48.864;9.190;2023-02-28T13:54:16;4.47;;;4.47;;
11510;SDS011;5812;48.864;9.190;2023-02-28T13:57:01;5.57;;;5.57;;
11510;SDS011;5812;48.864;9.190;2023-02-28T14:02:20;4.90;;;4.90;;
11510;SDS011;5812;48.864;9.190;2023-02-28T14:05:18;5.75;;;5.75;;
11510;SDS011;5812;48.864;9.190;2023-02-28T14:07:54;5.47;;;5.47;;
11510;SDS011;5812;48.864;9.190;2023-02-28T14:12:58;5.73;;;5.73;;
11510;SDS011;5812;48.864;9.190;2023-02-28T14:18:13;5.23;;;5.23;;
11510;SDS011;5812;48.864;9.190;2023-02-28T14:20:47;6.00;;;6.00;;
11510;SDS011;5812;48.864;9.190;2023-02-28T14:28:54;5.83;;;5.83;;
11510;SDS011;5812;48.864;9.190;2023-02-28T14:31:41;6.43;;;6.43;;
11510;SDS011;5812;48.864;9.190;2023-02-28T14:37:14;5.30;;;5.30;;
11510;SDS011;5812;48.864;9.190;2023-02-28T14:39:44;5.80;;;5.80;;
11510;SDS011;5812;48.864;9.190;2023-02-28T14:44:59;6.03;;;6.03;;
11510;SDS011;5812;48.864;9.190;2023-02-28T14:47:27;5.57;;;5.57;;
11510;SDS011;5812;48.864;9.190;2023-02-28T14:49:55;5.47;;;5.47;;
11510;SDS011;5812;48.864;9.190;2023-02-28T14:52:23;5.93;;;5.93;;
11510;SDS011;5812;48.864;9.190;2023-02-28T14:55:00;6.07;;;6.07;;
11510;SDS011;5812;48.864;9.190;2023-02-28T14:57:34;5.27;;;5.27;;
11510;SDS011;5812;48.864;9.190;2023-02-28T15:00:16;6.30;;;6.30;;
11510;SDS011;5812;48.864;9.190;2023-02-28T15:02:46;5.87;;;5.87;;
11510;SDS011;5812;48.864;9.190;2023-02-28T15:07:37;5.87;;;5.87;;
11510;SDS011;5812;48.864;9.190;2023-02-28T15:10:16;5.93;;;5.93;;
11510;SDS011;5812;48.864;9.190;2023-02-28T15:13:00;6.00;;;6.00;;
11510;SDS011;5812;48.864;9.190;2023-02-28T15:18:24;5.57;;;5.57;;
11510;SDS011;5812;48.864;9.190;2023-02-28T15:20:54;5.90;;;5.90;;
11510;SDS011;5812;48.864;9.190;2023-02-28T15:23:22;5.67;;;5.67;;
11510;SDS011;5812;48.864;9.190;2023-02-28T15:25:48;5.67;;;5.67;;
11510;SDS011;5812;48.864;9.190;2023-02-28T15:28:16;5.50;;;5.50;;
11510;SDS011;5812;48.864;9.190;2023-02-28T15:30:58;6.30;;;6.30;;
11510;SDS011;5812;48.864;9.190;2023-02-28T15:33:26;5.80;;;5.80;;
11510;SDS011;5812;48.864;9.190;2023-02-28T15:36:06;5.70;;;5.70;;
11510;SDS011;5812;48.864;9.190;2023-02-28T15:38:39;6.30;;;6.30;;
11510;SDS011;5812;48.864;9.190;2023-02-28T15:41:20;6.07;;;6.07;;
11510;SDS011;5812;48.864;9.190;2023-02-28T15:47:06;5.90;;;5.90;;
11510;SDS011;5812;48.864;9.190;2023-02-28T15:49:38;6.10;;;6.10;;
11510;SDS011;5812;48.864;9.190;2023-02-28T15:52:11;6.17;;;6.17;;
11510;SDS011;5812;48.864;9.190;2023-02-28T15:54:40;6.57;;;6.57;;
11510;SDS011;5812;48.864;9.190;2023-02-28T15:57:07;6.30;;;6.30;;
11510;SDS011;5812;48.864;9.190;2023-02-28T15:59:42;5.47;;;5.47;;
11510;SDS011;5812;48.864;9.190;2023-02-28T16:02:22;6.53;;;6.53;;
11510;SDS011;5812;48.864;9.190;2023-02-28T16:07:37;9.53;;;9.53;;
11510;SDS011;5812;48.864;9.190;2023-02-28T16:10:04;12.93;;;12.93;;
11510;SDS011;5812;48.864;9.190;2023-02-28T16:12:33;6.83;;;6.83;;
11510;SDS011;5812;48.864;9.190;2023-02-28T16:15:01;6.93;;;6.93;;
11510;SDS011;5812;48.864;9.190;2023-02-28T16:17:33;6.40;;;6.40;;
11510;SDS011;5812;48.864;9.190;2023-02-28T16:20:00;5.80;;;5.80;;
11510;SDS011;5812;48.864;9.190;2023-02-28T16:22:30;6.17;;;6.17;;
11510;SDS011;5812;48.864;9.190;2023-02-28T16:24:56;6.53;;;6.53;;
11510;SDS011;5812;48.864;9.190;2023-02-28T16:27:25;6.30;;;6.30;;
11510;SDS011;5812;48.864;9.190;2023-02-28T16:29:55;6.20;;;6.20;;
11510;SDS011;5812;48.864;9.190;2023-02-28T16:32:21;6.77;;;6.77;;
11510;SDS011;5812;48.864;9.190;2023-02-28T16:34:46;6.30;;;6.30;;
11510;SDS011;5812;48.864;9.190;2023-02-28T16:37:17;6.83;;;6.83;;
11510;SDS011;5812;48.864;9.190;2023-02-28T16:39:43;8.17;;;8.17;;
11510;SDS011;5812;48.864;9.190;2023-02-28T16:42:20;7.87;;;7.87;;
11510;SDS011;5812;48.864;9.190;2023-02-28T16:44:52;11.43;;;11.43;;
11510;SDS011;5812;48.864;9.190;2023-02-28T16:47:18;9.07;;;9.07;;
11510;SDS011;5812;48.864;9.190;2023-02-28T16:49:44;12.33;;;12.33;;
11510;SDS011;5812;48.864;9.190;2023-02-28T16:52:10;7.47;;;7.47;;
11510;SDS011;5812;48.864;9.190;2023-02-28T16:54:37;8.20;;;8.20;;
11510;SDS011;5812;48.864;9.190;2023-02-28T16:57:04;7.77;;;7.77;;
11510;SDS011;5812;48.864;9.190;2023-02-28T16:59:31;8.30;;;8.30;;
11510;SDS011;5812;48.864;9.190;2023-02-28T17:01:57;9.13;;;9.13;;
11510;SDS011;5812;48.864;9.190;2023-02-28T17:04:26;9.10;;;9.10;;
11510;SDS011;5812;48.864;9.190;2023-02-28T17:06:52;8.37;;;8.37;;
11510;SDS011;5812;48.864;9.190;2023-02-28T17:09:19;8.33;;;8.33;;
11510;SDS011;5812;48.864;9.190;2023-02-28T17:11:47;7.90;;;7.90;;
11510;SDS011;5812;48.864;9.190;2023-02-28T17:14:13;8.57;;;8.57;;
11510;SDS011;5812;48.864;9.190;2023-02-28T17:16:40;7.63;;;7.63;;
11510;SDS011;5812;48.864;9.190;2023-02-28T17:19:09;8.70;;;8.70;;
11510;SDS011;5812;48.864;9.190;2023-02-28T17:21:37;8.33;;;8.33;;
11510;SDS011;5812;48.864;9.190;2023-02-28T17:24:03;8.03;;;8.03;;
11510;SDS011;5812;48.864;9.190;2023-02-28T17:26:29;11.77;;;11.67;;
11510;SDS011;5812;48.864;9.190;2023-02-28T17:28:55;11.83;;;11.73;;
11510;SDS011;5812;48.864;9.190;2023-02-28T17:31:25;10.07;;;10.07;;
11510;SDS011;5812;48.864;9.190;2023-02-28T17:33:52;10.60;;;10.60;;
11510;SDS011;5812;48.864;9.190;2023-02-28T17:36:24;9.00;;;9.00;;
11510;SDS011;5812;48.864;9.190;2023-02-28T17:38:51;9.17;;;9.17;;
11510;SDS011;5812;48.864;9.190;2023-02-28T17:41:18;8.40;;;8.40;;
11510;SDS011;5812;48.864;9.190;2023-02-28T17:43:43;9.40;;;9.40;;
11510;SDS011;5812;48.864;9.190;2023-02-28T17:46:21;8.57;;;8.57;;
11510;SDS011;5812;48.864;9.190;2023-02-28T17:48:49;8.43;;;8.43;;
11510;SDS011;5812;48.864;9.190;2023-02-28T17:51:16;9.07;;;9.07;;
11510;SDS011;5812;48.864;9.190;2023-02-28T17:53:42;10.50;;;10.50;;